sensor_id;sensor_type;location;lat;lon;timestamp;temperature;humidity
42147;DHT22;27815;43.410;11.852;2023-12-22T00:02:50;9.70;71.90
42147;DHT22;27815;43.410;11.852;2023-12-22T00:06:53;9.80;71.90
42147;DHT22;27815;43.410;11.852;2023-12-22T00:10:59;9.80;71.80
42147;DHT22;27815;43.410;11.852;2023-12-22T00:15:02;9.80;71.80
42147;DHT22;27815;43.410;11.852;2023-12-22T00:19:05;9.90;71.80
42147;DHT22;27815;43.410;11.852;2023-12-22T00:23:08;10.10;71.60
42147;DHT22;27815;43.410;11.852;2023-12-22T00:27:11;10.20;71.40
42147;DHT22;27815;43.410;11.852;2023-12-22T00:31:14;10.30;71.00
42147;DHT22;27815;43.410;11.852;2023-12-22T00:35:17;10.40;70.50
42147;DHT22;27815;43.410;11.852;2023-12-22T00:39:20;10.40;70.00
42147;DHT22;27815;43.410;11.852;2023-12-22T00:43:22;10.50;69.80
42147;DHT22;27815;43.410;11.852;2023-12-22T00:47:25;10.50;69.70
42147;DHT22;27815;43.410;11.852;2023-12-22T00:51:28;10.50;69.30
42147;DHT22;27815;43.410;11.852;2023-12-22T00:55:31;10.40;69.00
42147;DHT22;27815;43.410;11.852;2023-12-22T00:59:34;10.30;69.20
42147;DHT22;27815;43.410;11.852;2023-12-22T01:03:37;10.20;69.50
42147;DHT22;27815;43.410;11.852;2023-12-22T01:07:40;10.10;69.90
42147;DHT22;27815;43.410;11.852;2023-12-22T01:11:43;10.10;70.20
42147;DHT22;27815;43.410;11.852;2023-12-22T01:15:46;10.00;70.80
42147;DHT22;27815;43.410;11.852;2023-12-22T01:19:49;10.00;70.60
42147;DHT22;27815;43.410;11.852;2023-12-22T01:23:53;9.60;71.10
42147;DHT22;27815;43.410;11.852;2023-12-22T01:27:56;9.50;71.70
42147;DHT22;27815;43.410;11.852;2023-12-22T01:31:59;9.50;71.90
42147;DHT22;27815;43.410;11.852;2023-12-22T01:36:02;9.30;71.40
42147;DHT22;27815;43.410;11.852;2023-12-22T01:40:05;9.00;71.60
42147;DHT22;27815;43.410;11.852;2023-12-22T01:44:09;8.90;72.70
42147;DHT22;27815;43.410;11.852;2023-12-22T01:48:12;9.10;74.40
42147;DHT22;27815;43.410;11.852;2023-12-22T01:52:15;9.40;74.50
42147;DHT22;27815;43.410;11.852;2023-12-22T01:56:19;9.50;74.30
42147;DHT22;27815;43.410;11.852;2023-12-22T02:00:22;9.70;74.10
42147;DHT22;27815;43.410;11.852;2023-12-22T02:04:26;9.80;74.60
42147;DHT22;27815;43.410;11.852;2023-12-22T02:08:32;9.90;74.50
42147;DHT22;27815;43.410;11.852;2023-12-22T02:12:37;9.80;73.90
42147;DHT22;27815;43.410;11.852;2023-12-22T02:22:04;9.80;75.00
42147;DHT22;27815;43.410;11.852;2023-12-22T02:26:33;9.50;73.90
42147;DHT22;27815;43.410;11.852;2023-12-22T02:34:45;9.30;76.20
42147;DHT22;27815;43.410;11.852;2023-12-22T02:38:53;9.40;76.30
42147;DHT22;27815;43.410;11.852;2023-12-22T02:42:57;9.50;76.80
42147;DHT22;27815;43.410;11.852;2023-12-22T02:47:00;9.60;76.90
42147;DHT22;27815;43.410;11.852;2023-12-22T02:51:04;9.80;76.30
42147;DHT22;27815;43.410;11.852;2023-12-22T02:55:07;10.10;75.70
42147;DHT22;27815;43.410;11.852;2023-12-22T02:59:10;10.30;75.00
42147;DHT22;27815;43.410;11.852;2023-12-22T03:03:13;10.00;74.50
42147;DHT22;27815;43.410;11.852;2023-12-22T03:07:16;9.90;74.20
42147;DHT22;27815;43.410;11.852;2023-12-22T03:11:19;10.00;74.50
42147;DHT22;27815;43.410;11.852;2023-12-22T03:15:22;10.10;74.00
42147;DHT22;27815;43.410;11.852;2023-12-22T03:19:25;9.70;73.50
42147;DHT22;27815;43.410;11.852;2023-12-22T03:23:28;9.50;73.60
42147;DHT22;27815;43.410;11.852;2023-12-22T03:27:30;9.40;73.50
42147;DHT22;27815;43.410;11.852;2023-12-22T03:31:33;9.20;73.70
42147;DHT22;27815;43.410;11.852;2023-12-22T03:35:36;9.00;73.80
42147;DHT22;27815;43.410;11.852;2023-12-22T03:39:39;8.90;74.10
42147;DHT22;27815;43.410;11.852;2023-12-22T03:43:42;9.00;74.00
42147;DHT22;27815;43.410;11.852;2023-12-22T03:47:45;8.90;74.00
42147;DHT22;27815;43.410;11.852;2023-12-22T03:51:48;8.90;74.00
42147;DHT22;27815;43.410;11.852;2023-12-22T03:55:51;8.80;74.20
42147;DHT22;27815;43.410;11.852;2023-12-22T03:59:54;8.80;74.20
42147;DHT22;27815;43.410;11.852;2023-12-22T04:03:57;8.70;74.20
42147;DHT22;27815;43.410;11.852;2023-12-22T04:07:59;8.70;74.30
42147;DHT22;27815;43.410;11.852;2023-12-22T04:12:03;8.60;74.30
42147;DHT22;27815;43.410;11.852;2023-12-22T04:16:06;8.60;74.20
42147;DHT22;27815;43.410;11.852;2023-12-22T04:20:09;8.60;74.40
42147;DHT22;27815;43.410;11.852;2023-12-22T04:24:12;8.60;74.60
42147;DHT22;27815;43.410;11.852;2023-12-22T04:28:15;8.60;74.70
42147;DHT22;27815;43.410;11.852;2023-12-22T04:32:18;8.60;75.50
42147;DHT22;27815;43.410;11.852;2023-12-22T04:36:20;8.80;75.40
42147;DHT22;27815;43.410;11.852;2023-12-22T04:40:23;9.00;75.30
42147;DHT22;27815;43.410;11.852;2023-12-22T04:44:26;9.10;75.60
42147;DHT22;27815;43.410;11.852;2023-12-22T04:48:29;9.30;75.30
42147;DHT22;27815;43.410;11.852;2023-12-22T04:52:32;9.50;75.70
42147;DHT22;27815;43.410;11.852;2023-12-22T04:56:35;9.80;75.70
42147;DHT22;27815;43.410;11.852;2023-12-22T05:00:39;10.00;75.20
42147;DHT22;27815;43.410;11.852;2023-12-22T05:04:42;10.00;74.40
42147;DHT22;27815;43.410;11.852;2023-12-22T05:08:45;9.60;74.10
42147;DHT22;27815;43.410;11.852;2023-12-22T05:12:49;9.30;74.20
42147;DHT22;27815;43.410;11.852;2023-12-22T05:16:52;9.10;74.40
42147;DHT22;27815;43.410;11.852;2023-12-22T05:20:57;9.10;74.50
42147;DHT22;27815;43.410;11.852;2023-12-22T05:25:00;9.00;75.10
42147;DHT22;27815;43.410;11.852;2023-12-22T05:29:03;9.10;75.40
42147;DHT22;27815;43.410;11.852;2023-12-22T05:33:06;9.50;76.30
42147;DHT22;27815;43.410;11.852;2023-12-22T05:37:09;9.90;76.10
42147;DHT22;27815;43.410;11.852;2023-12-22T05:41:12;10.20;75.60
42147;DHT22;27815;43.410;11.852;2023-12-22T05:45:15;10.40;75.10
42147;DHT22;27815;43.410;11.852;2023-12-22T05:49:18;10.50;74.80
42147;DHT22;27815;43.410;11.852;2023-12-22T05:53:21;10.60;74.50
42147;DHT22;27815;43.410;11.852;2023-12-22T05:57:27;10.80;74.30
42147;DHT22;27815;43.410;11.852;2023-12-22T06:01:30;11.00;73.90
42147;DHT22;27815;43.410;11.852;2023-12-22T06:05:33;11.10;73.50
42147;DHT22;27815;43.410;11.852;2023-12-22T06:09:36;11.10;73.20
42147;DHT22;27815;43.410;11.852;2023-12-22T06:13:39;11.20;73.10
42147;DHT22;27815;43.410;11.852;2023-12-22T06:17:41;11.20;72.70
42147;DHT22;27815;43.410;11.852;2023-12-22T06:21:44;11.30;72.60
42147;DHT22;27815;43.410;11.852;2023-12-22T06:25:47;11.30;72.40
42147;DHT22;27815;43.410;11.852;2023-12-22T06:29:50;11.10;72.30
42147;DHT22;27815;43.410;11.852;2023-12-22T06:33:53;10.90;72.70
42147;DHT22;27815;43.410;11.852;2023-12-22T06:37:56;11.00;72.80
42147;DHT22;27815;43.410;11.852;2023-12-22T06:42:04;11.10;72.80
42147;DHT22;27815;43.410;11.852;2023-12-22T06:46:18;11.00;72.40
42147;DHT22;27815;43.410;11.852;2023-12-22T06:50:21;10.70;72.40
42147;DHT22;27815;43.410;11.852;2023-12-22T06:54:24;10.40;72.60
42147;DHT22;27815;43.410;11.852;2023-12-22T06:58:27;10.20;72.70
42147;DHT22;27815;43.410;11.852;2023-12-22T07:02:30;9.90;72.70
42147;DHT22;27815;43.410;11.852;2023-12-22T07:06:34;9.60;73.00
42147;DHT22;27815;43.410;11.852;2023-12-22T07:10:37;9.60;73.20
42147;DHT22;27815;43.410;11.852;2023-12-22T07:14:40;9.50;73.20
42147;DHT22;27815;43.410;11.852;2023-12-22T07:18:43;9.40;73.40
42147;DHT22;27815;43.410;11.852;2023-12-22T07:22:46;9.40;73.60
42147;DHT22;27815;43.410;11.852;2023-12-22T07:26:49;9.30;73.70
42147;DHT22;27815;43.410;11.852;2023-12-22T07:30:52;9.30;73.70
42147;DHT22;27815;43.410;11.852;2023-12-22T07:34:56;9.10;73.80
42147;DHT22;27815;43.410;11.852;2023-12-22T07:39:00;9.00;74.20
42147;DHT22;27815;43.410;11.852;2023-12-22T07:43:04;8.90;74.10
42147;DHT22;27815;43.410;11.852;2023-12-22T07:47:06;8.70;74.70
42147;DHT22;27815;43.410;11.852;2023-12-22T07:51:12;8.80;75.00
42147;DHT22;27815;43.410;11.852;2023-12-22T07:55:15;8.90;75.60
42147;DHT22;27815;43.410;11.852;2023-12-22T07:59:18;9.10;75.30
42147;DHT22;27815;43.410;11.852;2023-12-22T08:03:33;9.20;75.30
42147;DHT22;27815;43.410;11.852;2023-12-22T08:07:36;9.10;74.90
42147;DHT22;27815;43.410;11.852;2023-12-22T08:11:39;8.80;74.90
42147;DHT22;27815;43.410;11.852;2023-12-22T08:15:42;8.80;75.30
42147;DHT22;27815;43.410;11.852;2023-12-22T08:19:45;9.00;75.20
42147;DHT22;27815;43.410;11.852;2023-12-22T08:23:50;9.10;75.20
42147;DHT22;27815;43.410;11.852;2023-12-22T08:27:57;9.60;77.70
42147;DHT22;27815;43.410;11.852;2023-12-22T08:32:01;10.40;77.50
42147;DHT22;27815;43.410;11.852;2023-12-22T08:36:04;11.00;76.40
42147;DHT22;27815;43.410;11.852;2023-12-22T08:40:07;11.30;75.60
42147;DHT22;27815;43.410;11.852;2023-12-22T08:44:11;11.70;75.00
42147;DHT22;27815;43.410;11.852;2023-12-22T08:48:14;11.90;74.40
42147;DHT22;27815;43.410;11.852;2023-12-22T08:52:17;12.00;73.70
42147;DHT22;27815;43.410;11.852;2023-12-22T08:56:19;12.10;73.30
42147;DHT22;27815;43.410;11.852;2023-12-22T09:00:23;12.00;72.90
42147;DHT22;27815;43.410;11.852;2023-12-22T09:04:26;12.10;72.60
42147;DHT22;27815;43.410;11.852;2023-12-22T09:08:29;12.20;72.00
42147;DHT22;27815;43.410;11.852;2023-12-22T09:12:32;12.40;71.70
42147;DHT22;27815;43.410;11.852;2023-12-22T09:16:36;12.60;70.70
42147;DHT22;27815;43.410;11.852;2023-12-22T09:20:39;13.00;69.70
42147;DHT22;27815;43.410;11.852;2023-12-22T09:24:43;13.10;68.80
42147;DHT22;27815;43.410;11.852;2023-12-22T09:28:46;13.20;68.10
42147;DHT22;27815;43.410;11.852;2023-12-22T09:32:49;13.40;67.90
42147;DHT22;27815;43.410;11.852;2023-12-22T09:36:52;13.60;67.70
42147;DHT22;27815;43.410;11.852;2023-12-22T09:40:55;13.80;67.10
42147;DHT22;27815;43.410;11.852;2023-12-22T09:45:00;13.90;66.20
42147;DHT22;27815;43.410;11.852;2023-12-22T09:49:05;13.80;66.00
42147;DHT22;27815;43.410;11.852;2023-12-22T09:53:10;13.80;66.30
42147;DHT22;27815;43.410;11.852;2023-12-22T09:57:15;13.80;66.20
42147;DHT22;27815;43.410;11.852;2023-12-22T10:01:29;13.70;66.10
42147;DHT22;27815;43.410;11.852;2023-12-22T10:05:34;13.70;66.10
42147;DHT22;27815;43.410;11.852;2023-12-22T10:09:37;13.90;66.00
42147;DHT22;27815;43.410;11.852;2023-12-22T10:13:41;13.80;66.10
42147;DHT22;27815;43.410;11.852;2023-12-22T10:17:44;13.90;66.00
42147;DHT22;27815;43.410;11.852;2023-12-22T10:21:48;14.00;65.70
42147;DHT22;27815;43.410;11.852;2023-12-22T10:25:51;14.00;65.50
42147;DHT22;27815;43.410;11.852;2023-12-22T10:29:56;13.90;65.80
42147;DHT22;27815;43.410;11.852;2023-12-22T10:33:59;13.90;66.00
42147;DHT22;27815;43.410;11.852;2023-12-22T10:38:04;14.00;66.00
42147;DHT22;27815;43.410;11.852;2023-12-22T10:42:07;13.90;66.00
42147;DHT22;27815;43.410;11.852;2023-12-22T10:46:10;13.90;66.10
42147;DHT22;27815;43.410;11.852;2023-12-22T10:50:15;13.90;66.20
42147;DHT22;27815;43.410;11.852;2023-12-22T10:54:19;13.90;66.30
42147;DHT22;27815;43.410;11.852;2023-12-22T10:58:22;13.80;66.30
42147;DHT22;27815;43.410;11.852;2023-12-22T11:02:27;13.80;66.40
42147;DHT22;27815;43.410;11.852;2023-12-22T11:06:37;13.90;66.50
42147;DHT22;27815;43.410;11.852;2023-12-22T11:10:42;13.80;66.60
42147;DHT22;27815;43.410;11.852;2023-12-22T11:14:46;13.90;66.80
42147;DHT22;27815;43.410;11.852;2023-12-22T11:18:54;13.80;67.00
42147;DHT22;27815;43.410;11.852;2023-12-22T11:23:00;13.90;67.10
42147;DHT22;27815;43.410;11.852;2023-12-22T11:27:04;13.90;67.10
42147;DHT22;27815;43.410;11.852;2023-12-22T11:31:11;13.90;67.20
42147;DHT22;27815;43.410;11.852;2023-12-22T11:35:14;13.90;67.30
42147;DHT22;27815;43.410;11.852;2023-12-22T11:39:18;14.00;67.30
42147;DHT22;27815;43.410;11.852;2023-12-22T11:43:21;14.00;67.30
42147;DHT22;27815;43.410;11.852;2023-12-22T11:47:24;14.10;67.10
42147;DHT22;27815;43.410;11.852;2023-12-22T11:51:32;14.10;67.10
42147;DHT22;27815;43.410;11.852;2023-12-22T11:56:16;14.10;67.10
42147;DHT22;27815;43.410;11.852;2023-12-22T12:04:23;14.30;66.90
42147;DHT22;27815;43.410;11.852;2023-12-22T12:08:29;14.40;66.90
42147;DHT22;27815;43.410;11.852;2023-12-22T12:12:33;14.50;66.40
42147;DHT22;27815;43.410;11.852;2023-12-22T12:16:38;14.50;66.40
42147;DHT22;27815;43.410;11.852;2023-12-22T12:20:41;14.60;66.00
42147;DHT22;27815;43.410;11.852;2023-12-22T12:24:44;14.60;66.00
42147;DHT22;27815;43.410;11.852;2023-12-22T12:28:47;14.70;65.90
42147;DHT22;27815;43.410;11.852;2023-12-22T12:32:51;14.80;65.80
42147;DHT22;27815;43.410;11.852;2023-12-22T12:36:55;14.90;65.70
42147;DHT22;27815;43.410;11.852;2023-12-22T12:40:58;14.90;65.50
42147;DHT22;27815;43.410;11.852;2023-12-22T12:45:04;15.10;65.20
42147;DHT22;27815;43.410;11.852;2023-12-22T12:49:09;15.30;65.10
42147;DHT22;27815;43.410;11.852;2023-12-22T12:53:14;15.50;64.80
42147;DHT22;27815;43.410;11.852;2023-12-22T12:57:17;15.40;64.90
42147;DHT22;27815;43.410;11.852;2023-12-22T13:01:20;15.40;65.00
42147;DHT22;27815;43.410;11.852;2023-12-22T13:05:32;15.50;64.60
42147;DHT22;27815;43.410;11.852;2023-12-22T13:09:38;15.60;64.40
42147;DHT22;27815;43.410;11.852;2023-12-22T13:13:42;15.70;64.20
42147;DHT22;27815;43.410;11.852;2023-12-22T13:17:46;15.90;64.30
42147;DHT22;27815;43.410;11.852;2023-12-22T13:21:49;16.00;64.10
42147;DHT22;27815;43.410;11.852;2023-12-22T13:25:52;16.10;64.00
42147;DHT22;27815;43.410;11.852;2023-12-22T13:29:55;16.10;63.90
42147;DHT22;27815;43.410;11.852;2023-12-22T13:34:01;16.00;64.00
42147;DHT22;27815;43.410;11.852;2023-12-22T13:38:07;16.00;63.80
42147;DHT22;27815;43.410;11.852;2023-12-22T13:42:17;16.00;63.90
42147;DHT22;27815;43.410;11.852;2023-12-22T13:46:20;16.00;64.00
42147;DHT22;27815;43.410;11.852;2023-12-22T13:50:23;15.90;64.10
42147;DHT22;27815;43.410;11.852;2023-12-22T13:54:32;15.80;64.00
42147;DHT22;27815;43.410;11.852;2023-12-22T13:58:46;15.80;63.90
42147;DHT22;27815;43.410;11.852;2023-12-22T14:02:49;15.80;63.80
42147;DHT22;27815;43.410;11.852;2023-12-22T14:06:52;15.90;63.90
42147;DHT22;27815;43.410;11.852;2023-12-22T14:10:55;15.90;63.90
42147;DHT22;27815;43.410;11.852;2023-12-22T14:14:58;16.00;63.60
42147;DHT22;27815;43.410;11.852;2023-12-22T14:19:02;15.90;63.40
42147;DHT22;27815;43.410;11.852;2023-12-22T14:23:05;15.80;63.20
42147;DHT22;27815;43.410;11.852;2023-12-22T14:27:11;15.70;63.20
42147;DHT22;27815;43.410;11.852;2023-12-22T14:31:13;15.70;63.20
42147;DHT22;27815;43.410;11.852;2023-12-22T14:35:16;15.60;63.10
42147;DHT22;27815;43.410;11.852;2023-12-22T14:39:19;15.60;63.10
42147;DHT22;27815;43.410;11.852;2023-12-22T14:43:22;15.50;63.10
42147;DHT22;27815;43.410;11.852;2023-12-22T14:47:25;15.40;63.20
42147;DHT22;27815;43.410;11.852;2023-12-22T14:51:28;15.40;63.40
42147;DHT22;27815;43.410;11.852;2023-12-22T14:55:31;15.40;63.50
42147;DHT22;27815;43.410;11.852;2023-12-22T14:59:34;15.30;63.60
42147;DHT22;27815;43.410;11.852;2023-12-22T15:03:37;15.30;63.80
42147;DHT22;27815;43.410;11.852;2023-12-22T15:07:40;15.20;63.90
42147;DHT22;27815;43.410;11.852;2023-12-22T15:11:44;15.20;63.90
42147;DHT22;27815;43.410;11.852;2023-12-22T15:15:47;15.20;63.80
42147;DHT22;27815;43.410;11.852;2023-12-22T15:19:53;15.10;63.90
42147;DHT22;27815;43.410;11.852;2023-12-22T15:23:57;15.00;64.00
42147;DHT22;27815;43.410;11.852;2023-12-22T15:28:02;14.90;64.20
42147;DHT22;27815;43.410;11.852;2023-12-22T15:32:06;14.80;64.30
42147;DHT22;27815;43.410;11.852;2023-12-22T15:36:21;14.80;64.40
42147;DHT22;27815;43.410;11.852;2023-12-22T15:40:27;14.60;64.40
42147;DHT22;27815;43.410;11.852;2023-12-22T15:44:30;14.50;64.60
42147;DHT22;27815;43.410;11.852;2023-12-22T15:48:33;14.40;64.70
42147;DHT22;27815;43.410;11.852;2023-12-22T15:52:41;14.40;64.80
42147;DHT22;27815;43.410;11.852;2023-12-22T15:56:45;14.30;64.80
42147;DHT22;27815;43.410;11.852;2023-12-22T16:00:51;14.10;65.10
42147;DHT22;27815;43.410;11.852;2023-12-22T16:04:58;14.00;65.10
42147;DHT22;27815;43.410;11.852;2023-12-22T16:09:02;14.00;65.40
42147;DHT22;27815;43.410;11.852;2023-12-22T16:13:10;13.90;65.50
42147;DHT22;27815;43.410;11.852;2023-12-22T16:17:18;13.80;65.60
42147;DHT22;27815;43.410;11.852;2023-12-22T16:21:21;13.60;65.80
42147;DHT22;27815;43.410;11.852;2023-12-22T16:25:24;13.50;66.00
42147;DHT22;27815;43.410;11.852;2023-12-22T16:29:30;13.50;66.00
42147;DHT22;27815;43.410;11.852;2023-12-22T16:33:39;13.40;66.10
42147;DHT22;27815;43.410;11.852;2023-12-22T16:37:45;13.30;66.30
42147;DHT22;27815;43.410;11.852;2023-12-22T16:41:52;13.20;66.40
42147;DHT22;27815;43.410;11.852;2023-12-22T16:45:57;13.20;66.50
42147;DHT22;27815;43.410;11.852;2023-12-22T16:50:00;13.20;66.60
42147;DHT22;27815;43.410;11.852;2023-12-22T16:54:03;13.20;66.70
42147;DHT22;27815;43.410;11.852;2023-12-22T16:58:06;13.20;66.70
42147;DHT22;27815;43.410;11.852;2023-12-22T17:02:12;13.20;66.70
42147;DHT22;27815;43.410;11.852;2023-12-22T17:06:49;13.20;66.80
42147;DHT22;27815;43.410;11.852;2023-12-22T17:10:53;13.10;66.90
42147;DHT22;27815;43.410;11.852;2023-12-22T17:14:56;13.10;66.90
42147;DHT22;27815;43.410;11.852;2023-12-22T17:19:01;13.20;66.60
42147;DHT22;27815;43.410;11.852;2023-12-22T17:23:08;13.20;66.60
42147;DHT22;27815;43.410;11.852;2023-12-22T17:27:12;13.30;66.60
42147;DHT22;27815;43.410;11.852;2023-12-22T17:31:16;13.20;66.50
42147;DHT22;27815;43.410;11.852;2023-12-22T17:35:19;13.20;66.50
42147;DHT22;27815;43.410;11.852;2023-12-22T17:39:22;13.10;66.50
42147;DHT22;27815;43.410;11.852;2023-12-22T17:43:25;13.10;66.60
42147;DHT22;27815;43.410;11.852;2023-12-22T17:47:28;13.10;66.60
42147;DHT22;27815;43.410;11.852;2023-12-22T17:51:31;13.00;66.40
42147;DHT22;27815;43.410;11.852;2023-12-22T17:55:37;12.90;66.50
42147;DHT22;27815;43.410;11.852;2023-12-22T17:59:40;12.70;66.70
42147;DHT22;27815;43.410;11.852;2023-12-22T18:03:43;12.70;66.90
42147;DHT22;27815;43.410;11.852;2023-12-22T18:07:47;12.70;66.80
42147;DHT22;27815;43.410;11.852;2023-12-22T18:11:51;12.60;67.10
42147;DHT22;27815;43.410;11.852;2023-12-22T18:15:54;12.60;67.20
42147;DHT22;27815;43.410;11.852;2023-12-22T18:19:57;12.60;67.40
42147;DHT22;27815;43.410;11.852;2023-12-22T18:24:00;12.70;67.40
42147;DHT22;27815;43.410;11.852;2023-12-22T18:28:04;12.70;67.40
42147;DHT22;27815;43.410;11.852;2023-12-22T18:32:07;12.60;67.40
42147;DHT22;27815;43.410;11.852;2023-12-22T18:36:10;12.50;67.40
42147;DHT22;27815;43.410;11.852;2023-12-22T18:40:12;12.40;67.50
42147;DHT22;27815;43.410;11.852;2023-12-22T18:44:18;12.20;67.70
42147;DHT22;27815;43.410;11.852;2023-12-22T18:48:21;12.10;67.70
42147;DHT22;27815;43.410;11.852;2023-12-22T18:52:25;11.90;67.80
42147;DHT22;27815;43.410;11.852;2023-12-22T18:56:27;11.70;68.20
42147;DHT22;27815;43.410;11.852;2023-12-22T19:00:31;11.50;68.40
42147;DHT22;27815;43.410;11.852;2023-12-22T19:04:34;11.50;68.60
42147;DHT22;27815;43.410;11.852;2023-12-22T19:08:40;11.60;70.00
42147;DHT22;27815;43.410;11.852;2023-12-22T19:12:46;11.70;69.70
42147;DHT22;27815;43.410;11.852;2023-12-22T19:16:53;11.80;69.60
42147;DHT22;27815;43.410;11.852;2023-12-22T19:21:02;11.90;69.60
42147;DHT22;27815;43.410;11.852;2023-12-22T19:25:11;12.00;69.50
42147;DHT22;27815;43.410;11.852;2023-12-22T19:29:14;12.10;69.30
42147;DHT22;27815;43.410;11.852;2023-12-22T19:33:17;12.10;69.50
42147;DHT22;27815;43.410;11.852;2023-12-22T19:37:25;12.20;69.80
42147;DHT22;27815;43.410;11.852;2023-12-22T19:41:27;12.30;69.50
42147;DHT22;27815;43.410;11.852;2023-12-22T19:45:31;12.30;69.50
42147;DHT22;27815;43.410;11.852;2023-12-22T19:49:35;12.30;69.60
42147;DHT22;27815;43.410;11.852;2023-12-22T19:53:41;12.20;69.80
42147;DHT22;27815;43.410;11.852;2023-12-22T19:57:44;12.40;69.80
42147;DHT22;27815;43.410;11.852;2023-12-22T20:01:49;12.50;69.70
42147;DHT22;27815;43.410;11.852;2023-12-22T20:05:52;12.40;69.50
42147;DHT22;27815;43.410;11.852;2023-12-22T20:09:57;12.30;69.50
42147;DHT22;27815;43.410;11.852;2023-12-22T20:14:00;12.20;69.90
42147;DHT22;27815;43.410;11.852;2023-12-22T20:18:05;12.30;69.80
42147;DHT22;27815;43.410;11.852;2023-12-22T20:22:11;12.30;69.70
42147;DHT22;27815;43.410;11.852;2023-12-22T20:26:17;12.20;69.70
42147;DHT22;27815;43.410;11.852;2023-12-22T20:30:27;12.00;69.90
42147;DHT22;27815;43.410;11.852;2023-12-22T20:34:30;11.90;70.10
42147;DHT22;27815;43.410;11.852;2023-12-22T20:38:33;11.80;70.40
42147;DHT22;27815;43.410;11.852;2023-12-22T20:42:37;11.80;70.30
42147;DHT22;27815;43.410;11.852;2023-12-22T20:46:40;11.70;70.40
42147;DHT22;27815;43.410;11.852;2023-12-22T20:50:44;11.70;70.70
42147;DHT22;27815;43.410;11.852;2023-12-22T20:54:48;11.70;70.80
42147;DHT22;27815;43.410;11.852;2023-12-22T20:58:52;11.70;71.00
42147;DHT22;27815;43.410;11.852;2023-12-22T21:02:55;11.70;71.10
42147;DHT22;27815;43.410;11.852;2023-12-22T21:07:02;11.60;71.30
42147;DHT22;27815;43.410;11.852;2023-12-22T21:11:06;11.60;72.10
42147;DHT22;27815;43.410;11.852;2023-12-22T21:15:10;11.70;72.10
42147;DHT22;27815;43.410;11.852;2023-12-22T21:19:18;11.80;72.10
42147;DHT22;27815;43.410;11.852;2023-12-22T21:23:22;11.80;72.80
42147;DHT22;27815;43.410;11.852;2023-12-22T21:27:26;11.90;72.70
42147;DHT22;27815;43.410;11.852;2023-12-22T21:31:29;12.10;72.80
42147;DHT22;27815;43.410;11.852;2023-12-22T21:35:35;12.20;72.50
42147;DHT22;27815;43.410;11.852;2023-12-22T21:39:37;12.30;72.20
42147;DHT22;27815;43.410;11.852;2023-12-22T21:43:40;12.30;71.90
42147;DHT22;27815;43.410;11.852;2023-12-22T21:47:43;12.30;72.00
42147;DHT22;27815;43.410;11.852;2023-12-22T21:51:46;12.20;71.90
42147;DHT22;27815;43.410;11.852;2023-12-22T21:55:49;12.00;71.80
42147;DHT22;27815;43.410;11.852;2023-12-22T21:59:52;12.00;71.90
42147;DHT22;27815;43.410;11.852;2023-12-22T22:03:54;11.70;71.80
42147;DHT22;27815;43.410;11.852;2023-12-22T22:07:58;11.50;72.00
42147;DHT22;27815;43.410;11.852;2023-12-22T22:12:02;11.30;71.90
42147;DHT22;27815;43.410;11.852;2023-12-22T22:16:13;11.20;72.10
42147;DHT22;27815;43.410;11.852;2023-12-22T22:20:18;11.10;72.40
42147;DHT22;27815;43.410;11.852;2023-12-22T22:24:21;11.00;72.30
42147;DHT22;27815;43.410;11.852;2023-12-22T22:28:25;10.90;72.60
42147;DHT22;27815;43.410;11.852;2023-12-22T22:32:27;10.80;72.80
42147;DHT22;27815;43.410;11.852;2023-12-22T22:36:30;10.80;73.10
42147;DHT22;27815;43.410;11.852;2023-12-22T22:40:33;10.80;73.10
42147;DHT22;27815;43.410;11.852;2023-12-22T22:44:40;10.60;73.10
42147;DHT22;27815;43.410;11.852;2023-12-22T22:48:46;10.50;73.20
42147;DHT22;27815;43.410;11.852;2023-12-22T22:52:49;10.40;73.30
42147;DHT22;27815;43.410;11.852;2023-12-22T22:56:52;10.30;73.40
42147;DHT22;27815;43.410;11.852;2023-12-22T23:00:55;10.20;73.50
42147;DHT22;27815;43.410;11.852;2023-12-22T23:04:58;10.10;73.50
42147;DHT22;27815;43.410;11.852;2023-12-22T23:09:01;10.00;73.70
42147;DHT22;27815;43.410;11.852;2023-12-22T23:13:05;9.90;74.00
42147;DHT22;27815;43.410;11.852;2023-12-22T23:17:08;9.80;74.50
42147;DHT22;27815;43.410;11.852;2023-12-22T23:21:12;9.80;74.50
42147;DHT22;27815;43.410;11.852;2023-12-22T23:25:15;9.70;74.50
42147;DHT22;27815;43.410;11.852;2023-12-22T23:29:18;9.70;74.60
42147;DHT22;27815;43.410;11.852;2023-12-22T23:33:21;9.60;74.50
42147;DHT22;27815;43.410;11.852;2023-12-22T23:37:24;9.40;74.70
42147;DHT22;27815;43.410;11.852;2023-12-22T23:41:27;9.20;74.80
42147;DHT22;27815;43.410;11.852;2023-12-22T23:45:30;9.10;74.80
42147;DHT22;27815;43.410;11.852;2023-12-22T23:49:32;9.00;75.00
42147;DHT22;27815;43.410;11.852;2023-12-22T23:53:35;8.90;75.20
42147;DHT22;27815;43.410;11.852;2023-12-22T23:57:38;8.90;75.30
